LBSF/SOF METAR and TAF weather

Enter ICAO airport designator
Station Type Date Time Source
LBSF METAR 2020/07/02 20:30 UTC NOAA

LBSF 022030Z 10007KT CAVOK 22/17 Q1012 NOSIG


Station Type Date Time Source
LBSF Decoded METAR 2020/07/02 20:30 UTC NOAA

Sofia Observ. , Bulgaria (LBSF) 42-39N 023-23E 595M
Jul 02, 2020 - 04:30 PM EDT / 2020.07.02 2030 UTC
Wind: from the E (100 degrees) at 8 MPH (7 KT):0
Visibility: greater than 7 mile(s):0
Temperature: 71 F (22 C)
Dew Point: 62 F (17 C)
Relative Humidity: 73%
Pressure (altimeter): 29.88 in. Hg (1012 hPa)
ob: LBSF 022030Z 10007KT CAVOK 22/17 Q1012 NOSIG
cycle: 20

Station Type Date Time Source
LBSF TAF 2020/07/02 18:18 UTC NOAA

TAF LBSF 021700Z 0218/0318 VRB04KT 9999 SCT050 PROB30
TEMPO 0218/0221 5000 TSRA FEW040CB BKN070
TEMPO 0302/0306 5000 BR SCT010
TEMPO 0312/0318 TSRA FEW040CB BKN060

Example: see airport list